Time;durP1;ratioP1;P1;durP2;ratioP2;P2;SDS_P1;SDS_P2;PMS_P1;PMS_P2;Temp;Humidity;BMP_temperature;BMP_pressure;BME280_temperature;BME280_humidity;BME280_pressure;Samples;Min_cycle;Max_cycle;Signal;HPM_P1;HPM_P2
2022/01/24 00:01:27;;;;;;;3.40;0.80;;;5.90;99.90;;;;;;5073390;28;20063;-73
2022/01/24 00:03:57;;;;;;;7.25;1.08;;;5.90;99.90;;;;;;5073099;28;20558;-73
2022/01/24 00:06:24;;;;;;;6.30;1.00;;;5.80;99.90;;;;;;5072871;28;20491;-73
2022/01/24 00:08:50;;;;;;;2.72;0.80;;;5.80;99.90;;;;;;5073084;28;20383;-73
2022/01/24 00:11:20;;;;;;;1.65;0.90;;;5.80;99.90;;;;;;5072910;28;20017;-73
2022/01/24 00:16:27;;;;;;;3.38;0.75;;;5.70;99.90;;;;;;5072681;28;20288;-73
2022/01/24 00:26:53;;;;;;;4.47;0.90;;;5.60;99.90;;;;;;5072909;28;20062;-73
2022/01/24 00:29:22;;;;;;;1.95;0.60;;;5.50;99.90;;;;;;5072515;28;20547;-73
2022/01/24 00:31:48;;;;;;;6.22;1.00;;;5.50;99.90;;;;;;5072483;28;20028;-73
2022/01/24 00:34:15;;;;;;;1.42;0.70;;;5.50;99.90;;;;;;5072555;28;20021;-74
2022/01/24 00:36:42;;;;;;;3.83;0.80;;;5.50;99.90;;;;;;5072564;28;20036;-73
2022/01/24 00:39:08;;;;;;;0.88;0.60;;;5.60;99.90;;;;;;5072258;28;20500;-73
2022/01/24 00:41:46;;;;;;;2.10;0.63;;;5.70;99.90;;;;;;5072651;28;20035;-73
2022/01/24 00:47:01;;;;;;;7.07;1.20;;;5.90;99.90;;;;;;5072694;28;20078;-73
2022/01/24 00:54:55;;;;;;;2.90;0.80;;;5.50;99.90;;;;;;5072128;28;20081;-72
2022/01/24 00:57:21;;;;;;;1.38;0.73;;;5.40;99.90;;;;;;5071998;28;20439;-72
2022/01/24 00:59:48;;;;;;;0.98;0.70;;;5.30;99.90;;;;;;5072091;28;20025;-72
2022/01/24 01:02:16;;;;;;;1.75;0.90;;;5.20;99.90;;;;;;5071968;28;20112;-72
2022/01/24 01:07:08;;;;;;;3.60;0.80;;;5.10;99.90;;;;;;5072262;28;20519;-72
2022/01/24 01:20:44;;;;;;;1.65;0.70;;;4.80;99.90;;;;;;5072395;28;20043;-73
2022/01/24 01:23:10;;;;;;;2.92;0.88;;;4.70;99.90;;;;;;5072068;28;20029;-73
2022/01/24 01:25:38;;;;;;;5.50;0.90;;;4.70;99.90;;;;;;5071873;28;20472;-73
2022/01/24 01:28:04;;;;;;;1.33;0.70;;;4.70;99.90;;;;;;5071853;28;20097;-73
2022/01/24 01:30:38;;;;;;;0.77;0.68;;;4.70;99.90;;;;;;5071803;28;20365;-74
2022/01/24 01:33:17;;;;;;;3.53;0.82;;;4.60;99.90;;;;;;5071662;28;20025;-74
2022/01/24 01:35:57;;;;;;;1.40;0.80;;;4.50;99.90;;;;;;5071674;28;20036;-73
2022/01/24 01:54:47;;;;;;;1.45;0.90;;;4.30;99.90;;;;;;5075938;28;20027;-74
2022/01/24 01:57:19;;;;;;;1.27;0.77;;;4.30;99.90;;;;;;5075437;28;20032;-74
2022/01/24 01:59:45;;;;;;;2.42;0.82;;;4.30;99.90;;;;;;5075564;28;20394;-74
2022/01/24 02:02:11;;;;;;;4.32;0.88;;;4.30;99.90;;;;;;5075552;28;20040;-73
2022/01/24 02:04:38;;;;;;;1.90;0.90;;;4.30;99.90;;;;;;5075749;28;20093;-73
2022/01/24 02:07:04;;;;;;;2.53;0.88;;;4.30;99.90;;;;;;5075357;28;20085;-73
2022/01/24 02:09:31;;;;;;;1.05;0.70;;;4.30;99.90;;;;;;5075402;28;20025;-73
2022/01/24 02:11:57;;;;;;;1.92;0.80;;;4.30;99.90;;;;;;5075268;28;20036;-73
2022/01/24 02:14:30;;;;;;;2.00;0.75;;;4.30;99.90;;;;;;5075068;28;20017;-73
2022/01/24 02:17:03;;;;;;;2.55;0.63;;;4.30;99.90;;;;;;5059170;28;20047;-73
2022/01/24 02:22:17;;;;;;;1.63;0.88;;;4.40;99.90;;;;;;5055139;28;20021;-73
2022/01/24 02:56:12;;;;;;;0.93;0.60;;;4.60;99.90;;;;;;5054876;28;20057;-72
2022/01/24 02:58:38;;;;;;;1.48;0.70;;;4.70;99.90;;;;;;5054214;28;20113;-73
2022/01/24 03:01:07;;;;;;;0.60;0.60;;;4.70;99.90;;;;;;5054440;28;20480;-73
2022/01/24 03:37:17;;;;;;;1.42;0.68;;;5.40;99.90;;;;;;6109780;22;20031;-72
2022/01/24 03:39:42;;;;;;;0.63;0.63;;;5.50;99.90;;;;;;5070334;28;20495;-74
2022/01/24 03:42:08;;;;;;;2.60;0.90;;;5.50;99.90;;;;;;5073729;28;20082;-72
2022/01/24 03:44:34;;;;;;;1.95;0.60;;;5.50;99.90;;;;;;5073646;28;20029;-72
2022/01/24 03:49:47;;;;;;;0.75;0.60;;;5.40;99.90;;;;;;5073792;28;20031;-72
2022/01/24 03:52:14;;;;;;;2.10;0.68;;;5.40;99.90;;;;;;5073644;28;20051;-72
2022/01/24 03:54:43;;;;;;;1.13;0.63;;;5.30;99.90;;;;;;5073176;28;20356;-72
2022/01/24 03:57:10;;;;;;;1.00;0.50;;;5.30;99.90;;;;;;5073433;28;20028;-72
2022/01/24 03:59:36;;;;;;;0.60;0.60;;;5.30;99.90;;;;;;5072855;28;20060;-72
2022/01/24 04:02:03;;;;;;;0.82;0.63;;;5.30;99.90;;;;;;5073232;28;20480;-73
2022/01/24 04:04:29;;;;;;;0.50;0.50;;;5.30;99.90;;;;;;5073392;28;20035;-72
2022/01/24 04:06:55;;;;;;;2.05;0.60;;;5.30;99.90;;;;;;5073077;28;20033;-72
2022/01/24 04:09:21;;;;;;;1.73;0.70;;;5.30;99.90;;;;;;5073155;28;20036;-72
2022/01/24 04:11:51;;;;;;;1.30;0.60;;;5.30;99.90;;;;;;5073163;28;20032;-72
2022/01/24 04:14:29;;;;;;;;;;;5.30;99.90;;;;;;5073443;28;20044;-72
2022/01/24 04:22:18;;;;;;;0.50;0.50;;;5.20;99.90;;;;;;5073110;28;20025;-75
2022/01/24 04:24:46;;;;;;;0.50;0.50;;;5.10;99.90;;;;;;5072708;28;20074;-75
2022/01/24 04:27:14;;;;;;;2.17;0.60;;;5.10;99.90;;;;;;5072811;28;20024;-75
2022/01/24 04:29:40;;;;;;;2.80;1.15;;;5.00;99.90;;;;;;5072558;28;20025;-74
2022/01/24 04:32:06;;;;;;;2.38;0.70;;;5.00;99.90;;;;;;5072557;28;20046;-75
2022/01/24 04:34:32;;;;;;;1.70;0.73;;;5.00;99.90;;;;;;5072604;28;20016;-77
2022/01/24 04:36:58;;;;;;;0.85;0.70;;;5.00;99.90;;;;;;5072427;28;20039;-77
2022/01/24 04:39:24;;;;;;;0.75;0.75;;;5.00;99.90;;;;;;5072262;28;20072;-77
2022/01/24 04:41:53;;;;;;;3.72;0.68;;;5.00;99.90;;;;;;5072338;28;20031;-77
2022/01/24 04:44:47;;;;;;;1.07;0.63;;;5.00;99.90;;;;;;5072402;28;20013;-77
2022/01/24 04:52:35;;;;;;;1.15;0.52;;;5.00;99.90;;;;;;5072406;28;20050;-77
2022/01/24 04:55:02;;;;;;;1.17;0.70;;;5.00;99.90;;;;;;5072158;28;20012;-76
2022/01/24 04:57:28;;;;;;;0.77;0.60;;;5.00;99.90;;;;;;5072491;28;20455;-76
2022/01/24 04:59:57;;;;;;;2.97;0.70;;;5.00;99.90;;;;;;5072035;28;20017;-75
2022/01/24 05:02:24;;;;;;;0.57;0.57;;;5.10;99.90;;;;;;5072149;28;20024;-75
2022/01/24 05:04:52;;;;;;;1.60;0.85;;;5.10;99.90;;;;;;5072218;28;20047;-75
2022/01/24 05:07:18;;;;;;;1.25;0.47;;;5.10;99.90;;;;;;5072102;28;20479;-76
2022/01/24 05:09:55;;;;;;;2.75;0.68;;;5.10;99.90;;;;;;5071973;28;20096;-73
2022/01/24 05:23:30;;;;;;;0.70;0.50;;;5.10;99.90;;;;;;5072265;28;20441;-77
2022/01/24 05:25:58;;;;;;;0.57;0.50;;;5.10;99.90;;;;;;5071736;28;20024;-76
2022/01/24 05:28:24;;;;;;;0.55;0.50;;;5.20;99.90;;;;;;5072039;28;20043;-77
2022/01/24 05:30:50;;;;;;;1.38;0.60;;;5.20;99.90;;;;;;5071484;28;20025;-77
2022/01/24 05:33:16;;;;;;;0.40;0.40;;;5.30;99.90;;;;;;5071940;28;20028;-78
2022/01/24 05:35:42;;;;;;;1.77;0.60;;;5.30;99.90;;;;;;5071725;28;20043;-71
2022/01/24 05:38:10;;;;;;;0.85;0.68;;;5.40;99.90;;;;;;5071235;28;20045;-73
2022/01/24 05:40:36;;;;;;;6.53;0.50;;;5.50;99.90;;;;;;5070446;28;20029;-71
2022/01/24 05:43:02;;;;;;;2.75;0.60;;;6.80;99.90;;;;;;5071559;28;20103;-76
2022/01/24 05:45:28;;;;;;;1.23;0.50;;;7.60;99.90;;;;;;5071509;28;20044;-74
2022/01/24 05:47:54;;;;;;;0.98;0.50;;;7.10;99.90;;;;;;5070824;28;20028;-71
2022/01/24 05:50:20;;;;;;;0.40;0.40;;;6.70;99.90;;;;;;5069653;28;20020;-68
2022/01/24 05:52:45;;;;;;;5.15;1.17;;;6.40;99.90;;;;;;5070911;28;20468;-69
2022/01/24 05:55:11;;;;;;;9.70;0.90;;;6.20;99.90;;;;;;5070907;28;20384;-70
2022/01/24 05:57:37;;;;;;;0.85;0.55;;;5.90;99.90;;;;;;5070552;28;20032;-70
2022/01/24 06:00:06;;;;;;;2.45;0.55;;;5.80;99.90;;;;;;5067537;28;20035;-68
2022/01/24 06:02:31;;;;;;;3.42;0.70;;;5.70;99.90;;;;;;5070672;28;20020;-68
2022/01/24 06:04:57;;;;;;;0.57;0.52;;;5.70;99.90;;;;;;5070222;28;20023;-73
2022/01/24 06:07:23;;;;;;;0.63;0.60;;;5.70;99.90;;;;;;5070775;28;20383;-75
2022/01/24 06:09:48;;;;;;;0.50;0.50;;;5.70;99.90;;;;;;5070597;28;20087;-75
2022/01/24 06:12:15;;;;;;;1.85;0.95;;;5.70;99.90;;;;;;5070819;28;20028;-75
2022/01/24 06:14:41;;;;;;;1.38;0.68;;;5.70;99.90;;;;;;5067787;28;20558;-73
2022/01/24 06:17:06;;;;;;;0.50;0.50;;;5.70;99.90;;;;;;5070444;28;20127;-73
2022/01/24 06:19:32;;;;;;;0.90;0.60;;;5.70;99.90;;;;;;5070603;28;20017;-73
2022/01/24 06:21:58;;;;;;;0.50;0.50;;;5.70;99.90;;;;;;5070511;28;20033;-73
2022/01/24 06:24:23;;;;;;;0.50;0.50;;;5.70;99.90;;;;;;5074186;28;20033;-79
2022/01/24 06:26:49;;;;;;;0.80;0.63;;;5.70;99.90;;;;;;5075166;28;20021;-77
2022/01/24 06:29:15;;;;;;;1.38;0.65;;;5.70;99.90;;;;;;5074917;28;20138;-77
2022/01/24 06:31:40;;;;;;;2.40;0.60;;;5.80;99.90;;;;;;5075250;28;20059;-70
2022/01/24 06:34:06;;;;;;;0.60;0.60;;;5.80;99.90;;;;;;5075994;28;20481;-73
2022/01/24 06:36:32;;;;;;;0.85;0.52;;;5.80;99.90;;;;;;5081393;28;20036;-75
2022/01/24 06:39:03;;;;;;;1.25;0.60;;;5.70;99.90;;;;;;5074392;28;20040;-74
2022/01/24 06:41:33;;;;;;;0.57;0.57;;;5.70;99.90;;;;;;5075088;28;20028;-75
2022/01/24 06:43:59;;;;;;;1.60;0.70;;;5.70;99.90;;;;;;5074644;28;20016;-75
2022/01/24 06:46:25;;;;;;;1.10;0.52;;;5.60;99.90;;;;;;5074753;28;20017;-75
2022/01/24 06:48:50;;;;;;;0.68;0.60;;;5.60;99.90;;;;;;5074603;28;20439;-75
2022/01/24 06:51:18;;;;;;;0.75;0.60;;;5.60;99.90;;;;;;5074784;28;20025;-75
2022/01/24 06:53:44;;;;;;;0.93;0.50;;;5.60;99.90;;;;;;5074641;28;20028;-75
2022/01/24 06:56:10;;;;;;;1.27;0.75;;;5.60;99.90;;;;;;5074393;28;20040;-75
2022/01/24 06:58:37;;;;;;;0.63;0.60;;;5.50;99.90;;;;;;5074410;28;20054;-75
2022/01/24 07:01:03;;;;;;;0.80;0.60;;;5.60;99.90;;;;;;5074546;28;20021;-71
2022/01/24 07:03:29;;;;;;;0.77;0.60;;;5.50;99.90;;;;;;5074333;28;20549;-71
2022/01/24 07:05:55;;;;;;;0.60;0.60;;;5.60;99.90;;;;;;5074121;28;20033;-71
2022/01/24 07:08:21;;;;;;;1.88;0.60;;;5.50;99.90;;;;;;5074220;28;20036;-71
2022/01/24 07:10:47;;;;;;;1.25;0.63;;;5.60;99.90;;;;;;5074236;28;20534;-71
2022/01/24 07:13:13;;;;;;;1.13;0.60;;;5.60;99.90;;;;;;5072832;28;20021;-71
2022/01/24 07:15:47;;;;;;;1.08;0.63;;;5.60;99.90;;;;;;5073804;28;20116;-73
2022/01/24 07:20:38;;;;;;;3.80;0.85;;;5.90;99.90;;;;;;5074345;28;20417;-70
2022/01/24 07:23:05;;;;;;;1.70;1.05;;;6.00;99.90;;;;;;5073907;28;20040;-70
2022/01/24 07:25:31;;;;;;;0.65;0.55;;;6.20;99.90;;;;;;5074156;28;20406;-70
2022/01/24 07:27:57;;;;;;;0.52;0.52;;;6.40;99.90;;;;;;5073670;28;20029;-70
2022/01/24 07:30:24;;;;;;;1.85;0.70;;;6.30;99.90;;;;;;5073689;28;20070;-73
2022/01/24 07:32:50;;;;;;;1.77;0.80;;;6.50;99.90;;;;;;5073741;28;20123;-75
2022/01/24 07:35:15;;;;;;;0.60;0.60;;;6.60;99.90;;;;;;5072376;28;20036;-74
2022/01/24 07:37:41;;;;;;;0.50;0.50;;;6.70;99.90;;;;;;5073411;28;20021;-74
2022/01/24 07:40:09;;;;;;;3.80;0.52;;;6.80;99.90;;;;;;5073435;28;20047;-76
2022/01/24 07:42:55;;;;;;;2.45;0.60;;;6.80;99.90;;;;;;5073604;28;20021;-74
2022/01/24 07:45:23;;;;;;;1.05;0.60;;;6.80;99.90;;;;;;5073424;28;20023;-79
2022/01/24 07:47:49;;;;;;;0.70;0.50;;;6.90;99.90;;;;;;5073411;28;20108;-80
2022/01/24 07:50:23;;;;;;;0.70;0.70;;;6.80;99.90;;;;;;5073366;28;20025;-76
2022/01/24 07:52:49;;;;;;;6.88;1.70;;;6.80;99.90;;;;;;5073392;28;20028;-69
2022/01/24 07:55:15;;;;;;;7.93;1.50;;;6.90;99.90;;;;;;5073225;28;20020;-73
2022/01/24 07:57:41;;;;;;;14.85;1.95;;;9.40;99.90;;;;;;5073248;28;20422;-73
2022/01/24 08:00:12;;;;;;;1.77;0.50;;;10.80;99.90;;;;;;5073252;28;20044;-72
2022/01/24 08:02:39;;;;;;;1.13;0.60;;;11.00;95.50;;;;;;5073560;28;20055;-80
2022/01/24 08:05:06;;;;;;;1.30;0.50;;;9.70;91.00;;;;;;5072829;28;20091;-79
2022/01/24 08:07:32;;;;;;;1.08;0.63;;;8.70;93.10;;;;;;5073392;28;20029;-80
2022/01/24 08:09:58;;;;;;;1.65;0.47;;;7.90;95.60;;;;;;5070638;28;20107;-84
2022/01/24 08:12:24;;;;;;;1.27;0.60;;;7.40;98.10;;;;;;5071477;28;20070;-83
2022/01/24 08:14:50;;;;;;;1.98;0.50;;;7.10;99.20;;;;;;5072303;28;20103;-82
2022/01/24 08:17:16;;;;;;;1.63;0.50;;;6.80;99.90;;;;;;5072407;28;20123;-79
2022/01/24 08:19:41;;;;;;;1.23;0.50;;;6.70;99.90;;;;;;5072603;28;20024;-79
2022/01/24 08:22:07;;;;;;;1.50;0.63;;;6.50;99.90;;;;;;5072324;28;20037;-79
2022/01/24 08:24:33;;;;;;;2.33;0.60;;;6.40;99.90;;;;;;5071771;28;20376;-76
2022/01/24 08:26:59;;;;;;;1.85;0.80;;;6.30;99.90;;;;;;5071937;28;20104;-80
2022/01/24 08:29:24;;;;;;;0.80;0.70;;;6.30;99.90;;;;;;5071432;28;20040;-78
2022/01/24 08:31:50;;;;;;;1.52;0.63;;;6.20;99.90;;;;;;5072201;28;20104;-82
2022/01/24 08:34:16;;;;;;;0.73;0.68;;;6.10;99.90;;;;;;5072313;28;20024;-80
2022/01/24 08:36:41;;;;;;;1.92;1.30;;;6.10;99.90;;;;;;5071500;28;20040;-76
2022/01/24 08:39:09;;;;;;;1.58;1.38;;;6.00;99.90;;;;;;5072401;28;20052;-81
2022/01/24 08:42:14;;;;;;;5.82;3.92;;;6.10;99.90;;;;;;5073273;28;20617;-85
2022/01/24 08:47:11;;;;;;;16.23;7.88;;;6.70;99.90;;;;;;5071665;28;20032;-74
2022/01/24 08:49:37;;;;;;;8.77;5.20;;;6.70;99.90;;;;;;5072035;28;20032;-73
2022/01/24 08:52:03;;;;;;;22.70;14.57;;;6.60;99.90;;;;;;5072043;28;20544;-73
2022/01/24 08:54:30;;;;;;;9.20;3.97;;;6.60;99.90;;;;;;5072413;28;20032;-73
2022/01/24 08:56:55;;;;;;;3.53;2.05;;;6.60;99.90;;;;;;5070577;28;20090;-73
2022/01/24 08:59:22;;;;;;;2.45;1.60;;;6.50;99.90;;;;;;5072234;28;20103;-73
2022/01/24 09:01:48;;;;;;;3.78;2.83;;;6.50;99.90;;;;;;5071297;28;20039;-73
2022/01/24 09:04:14;;;;;;;1.80;1.35;;;6.50;99.90;;;;;;5071728;28;20480;-73
2022/01/24 09:06:40;;;;;;;2.47;1.80;;;6.50;99.90;;;;;;5072017;28;20040;-73
2022/01/24 09:09:06;;;;;;;7.72;3.83;;;6.50;99.90;;;;;;5071957;28;20031;-69
2022/01/24 09:11:34;;;;;;;2.30;0.90;;;6.50;99.90;;;;;;5071707;28;20086;-71
2022/01/24 09:14:02;;;;;;;3.95;3.20;;;6.50;99.90;;;;;;5071822;28;20024;-75
2022/01/24 09:16:28;;;;;;;4.55;2.10;;;6.40;99.90;;;;;;5071854;28;20040;-74
2022/01/24 09:18:54;;;;;;;1.38;1.10;;;6.40;99.90;;;;;;5071852;28;20070;-75
2022/01/24 09:21:20;;;;;;;0.68;0.68;;;6.40;99.90;;;;;;5071418;28;20028;-76
2022/01/24 09:23:46;;;;;;;0.88;0.70;;;6.40;99.90;;;;;;5072172;28;20467;-77
2022/01/24 09:26:12;;;;;;;1.40;0.80;;;6.40;99.90;;;;;;5071729;28;20029;-76
2022/01/24 09:28:38;;;;;;;0.50;0.43;;;6.50;99.90;;;;;;5071859;28;20082;-77
2022/01/24 09:31:04;;;;;;;1.30;0.60;;;6.50;99.90;;;;;;5071789;28;20021;-76
2022/01/24 09:33:32;;;;;;;0.63;0.60;;;6.50;99.90;;;;;;5072037;28;20017;-78
2022/01/24 09:36:00;;;;;;;198.40;80.05;;;7.10;99.90;;;;;;5071596;28;20041;-73
2022/01/24 09:38:32;;;;;;;87.95;36.17;;;7.10;99.90;;;;;;5070285;28;20506;-86
2022/01/24 09:41:00;;;;;;;64.50;34.97;;;6.80;99.90;;;;;;5071685;28;20041;-80
2022/01/24 09:43:26;;;;;;;23.08;13.68;;;6.70;99.90;;;;;;5071760;28;20103;-78
2022/01/24 09:45:52;;;;;;;9.50;5.75;;;6.60;99.90;;;;;;5071865;28;20044;-77
2022/01/24 09:48:18;;;;;;;28.45;17.48;;;6.60;99.90;;;;;;5071530;28;20480;-75
2022/01/24 09:50:45;;;;;;;22.85;14.90;;;6.60;99.90;;;;;;5071667;28;20031;-76
2022/01/24 09:53:13;;;;;;;5.85;3.83;;;6.70;99.90;;;;;;5071686;28;20051;-78
2022/01/24 09:55:39;;;;;;;11.40;7.63;;;6.80;99.90;;;;;;5071426;28;20067;-81
2022/01/24 09:58:05;;;;;;;1.52;1.42;;;7.10;99.90;;;;;;5072837;28;20052;-79
2022/01/24 10:00:31;;;;;;;0.80;0.70;;;7.10;99.90;;;;;;5075357;28;20062;-74
2022/01/24 10:02:58;;;;;;;1.42;0.90;;;6.90;99.90;;;;;;5076424;28;20023;-79
2022/01/24 10:05:34;;;;;;;1.00;0.60;;;6.80;99.90;;;;;;5076101;28;20395;-79
2022/01/24 10:08:06;;;;;;;0.77;0.52;;;6.70;99.90;;;;;;5076609;28;20131;-77
2022/01/24 10:10:44;;;;;;;4.53;1.08;;;6.60;99.90;;;;;;5075273;28;20021;-85
2022/01/24 10:19:15;;;;;;;2.55;0.43;;;10.20;99.90;;;;;;5075080;28;20020;-74
2022/01/24 10:21:46;;;;;;;0.57;0.57;;;9.40;95.30;;;;;;5075004;28;20073;-73
2022/01/24 10:24:37;;;;;;;0.70;0.70;;;8.60;96.80;;;;;;5074915;28;20075;-74
2022/01/24 10:27:13;;;;;;;13.40;1.40;;;8.00;98.70;;;;;;5074011;28;20024;-72
2022/01/24 10:29:50;;;;;;;0.55;0.40;;;8.10;99.90;;;;;;5071491;28;20024;-73
2022/01/24 10:33:03;;;;;;;0.50;0.50;;;8.20;99.90;;;;;;5066248;28;20020;-74
2022/01/24 10:35:33;;;;;;;0.93;0.50;;;7.70;99.90;;;;;;5063768;28;20518;-74
2022/01/24 10:38:39;;;;;;;2.65;0.50;;;7.40;99.90;;;;;;5059684;28;20041;-74
2022/01/24 10:41:21;;;;;;;1.40;0.40;;;7.10;99.90;;;;;;5066070;28;20435;-76
2022/01/24 10:43:48;;;;;;;0.63;0.45;;;6.90;99.90;;;;;;5075633;28;20556;-75
2022/01/24 10:46:20;;;;;;;0.55;0.55;;;6.80;99.90;;;;;;5071420;28;20028;-73
2022/01/24 10:48:49;;;;;;;0.82;0.50;;;6.70;99.90;;;;;;5073782;28;20044;-74
2022/01/24 10:51:21;;;;;;;0.30;0.30;;;6.60;99.90;;;;;;5074169;28;20475;-74
2022/01/24 10:53:48;;;;;;;0.63;0.50;;;6.60;99.90;;;;;;5074579;28;20178;-73
2022/01/24 10:56:44;;;;;;;0.50;0.50;;;6.50;99.90;;;;;;5074257;28;20476;-74
2022/01/24 10:59:10;;;;;;;0.43;0.43;;;6.40;99.90;;;;;;5061479;28;20127;-73
2022/01/24 11:01:36;;;;;;;0.60;0.60;;;6.40;99.90;;;;;;5074256;28;20099;-73
2022/01/24 11:04:13;;;;;;;1.92;0.50;;;6.30;99.90;;;;;;5073996;28;20024;-73
2022/01/24 11:06:48;;;;;;;1.25;0.50;;;6.30;99.90;;;;;;5074570;28;20075;-73
2022/01/24 11:09:24;;;;;;;0.90;0.50;;;6.20;99.90;;;;;;5073610;28;20028;-73
2022/01/24 11:11:55;;;;;;;0.40;0.40;;;6.20;99.90;;;;;;5074249;28;20479;-73
2022/01/24 11:14:24;;;;;;;0.50;0.50;;;6.20;99.90;;;;;;5074129;28;20520;-72
2022/01/24 11:16:51;;;;;;;1.35;0.50;;;6.10;99.90;;;;;;5073955;28;20025;-72
2022/01/24 11:19:33;;;;;;;0.50;0.50;;;6.10;99.90;;;;;;5073923;28;20024;-72
2022/01/24 11:22:04;;;;;;;0.50;0.50;;;6.10;99.90;;;;;;5073970;28;20024;-72
2022/01/24 11:24:44;;;;;;;0.40;0.40;;;6.10;99.90;;;;;;5073915;28;20017;-72
2022/01/24 11:27:10;;;;;;;0.65;0.60;;;6.00;99.90;;;;;;5073785;28;20446;-73
2022/01/24 11:29:37;;;;;;;0.57;0.57;;;6.00;99.90;;;;;;5073891;28;20024;-72
2022/01/24 11:32:03;;;;;;;1.38;0.60;;;6.00;99.90;;;;;;5074088;28;20025;-73
2022/01/24 11:34:37;;;;;;;1.00;0.40;;;6.00;99.90;;;;;;5074039;28;20017;-72
2022/01/24 11:37:04;;;;;;;3.75;0.50;;;5.90;99.90;;;;;;5073659;28;20106;-72
2022/01/24 11:39:30;;;;;;;0.50;0.50;;;5.90;99.90;;;;;;5073608;28;20060;-72
2022/01/24 11:41:57;;;;;;;0.52;0.40;;;5.90;99.90;;;;;;5071668;28;21484;-72
2022/01/24 11:44:23;;;;;;;0.40;0.40;;;5.80;99.90;;;;;;5071993;28;20055;-72
2022/01/24 11:46:54;;;;;;;0.45;0.45;;;5.80;99.90;;;;;;5072893;28;20029;-72
2022/01/24 11:49:26;;;;;;;1.00;0.52;;;5.80;99.90;;;;;;5053380;28;20431;-72
2022/01/24 11:52:07;;;;;;;0.75;0.50;;;5.80;99.90;;;;;;5068329;28;20029;-71
2022/01/24 11:57:17;;;;;;;0.73;0.40;;;5.70;99.90;;;;;;5070131;28;20128;-72
2022/01/24 11:59:43;;;;;;;0.82;0.50;;;5.70;99.90;;;;;;5064723;28;20507;-71
2022/01/24 12:02:11;;;;;;;0.40;0.40;;;5.70;99.90;;;;;;5072256;28;20030;-71
2022/01/24 12:05:00;;;;;;;1.42;0.55;;;5.60;99.90;;;;;;5070812;28;20158;-71
2022/01/24 12:07:31;;;;;;;2.92;0.55;;;5.60;99.90;;;;;;5072363;28;20495;-71
2022/01/24 12:10:23;;;;;;;0.50;0.50;;;5.60;99.90;;;;;;5069735;28;20024;-71
2022/01/24 12:12:51;;;;;;;2.03;0.70;;;5.60;99.90;;;;;;5069377;28;20082;-71
2022/01/24 12:15:39;;;;;;;0.68;0.60;;;5.50;99.90;;;;;;5072583;28;20017;-75
2022/01/24 12:18:09;;;;;;;1.95;0.60;;;5.50;99.90;;;;;;5068907;28;20028;-72
2022/01/24 12:20:37;;;;;;;3.10;0.60;;;5.50;99.90;;;;;;5071278;28;20118;-72
2022/01/24 12:23:19;;;;;;;2.50;0.68;;;5.50;99.90;;;;;;5069190;28;20036;-72
2022/01/24 12:26:05;;;;;;;3.10;0.75;;;5.50;99.90;;;;;;5070905;28;20025;-72
2022/01/24 12:28:48;;;;;;;1.90;0.88;;;5.40;99.90;;;;;;5072151;28;20383;-73
2022/01/24 12:31:36;;;;;;;5.30;1.27;;;5.30;99.90;;;;;;5060341;28;20017;-72
2022/01/24 12:34:25;;;;;;;3.17;0.73;;;5.40;99.90;;;;;;5070672;28;20024;-72
2022/01/24 12:37:02;;;;;;;2.70;0.95;;;5.30;99.90;;;;;;5070108;28;20036;-71
2022/01/24 12:39:37;;;;;;;3.40;1.02;;;5.30;99.90;;;;;;5071867;28;20043;-71
2022/01/24 12:42:17;;;;;;;7.43;1.00;;;5.30;99.90;;;;;;5070744;28;20020;-71
2022/01/24 12:47:12;;;;;;;3.97;1.05;;;5.20;99.90;;;;;;5070451;28;20025;-73
2022/01/24 12:49:39;;;;;;;1.25;0.80;;;5.20;99.30;;;;;;5060879;28;20111;-73
2022/01/24 12:52:07;;;;;;;4.35;1.00;;;5.10;99.00;;;;;;5071301;28;20032;-74
2022/01/24 12:54:39;;;;;;;5.10;1.35;;;5.10;99.00;;;;;;5071845;28;20032;-74
2022/01/24 12:57:08;;;;;;;3.22;1.15;;;5.30;99.90;;;;;;5071679;28;20482;-74
2022/01/24 12:59:37;;;;;;;7.47;1.15;;;5.30;99.90;;;;;;5072052;28;20028;-74
2022/01/24 13:02:05;;;;;;;3.03;0.82;;;5.30;99.60;;;;;;5071664;28;20036;-75
2022/01/24 13:04:31;;;;;;;2.20;0.82;;;5.20;98.70;;;;;;5071379;28;20039;-75
2022/01/24 13:06:57;;;;;;;2.38;0.90;;;5.20;98.50;;;;;;5072174;28;20020;-74
2022/01/24 13:09:25;;;;;;;4.53;1.10;;;5.20;99.90;;;;;;5071841;28;20112;-75
2022/01/24 13:11:52;;;;;;;2.85;0.80;;;6.20;99.90;;;;;;5071607;28;20024;-75
2022/01/24 13:22:47;;;;;;;3.92;1.10;;;5.90;99.90;;;;;;5071972;28;20059;-76
2022/01/24 13:25:16;;;;;;;4.28;1.00;;;5.70;95.90;;;;;;5071502;28;20029;-75
2022/01/24 13:27:45;;;;;;;10.65;1.10;;;5.50;95.80;;;;;;5072150;28;20111;-74
2022/01/24 13:30:25;;;;;;;6.50;1.10;;;6.10;99.90;;;;;;5071599;28;20020;-75
2022/01/24 13:32:58;;;;;;;5.03;1.23;;;6.70;97.80;;;;;;5070585;28;20040;-75
2022/01/24 13:35:27;;;;;;;6.05;1.25;;;6.30;94.40;;;;;;5073742;28;20035;-74
2022/01/24 13:38:12;;;;;;;3.30;1.15;;;5.80;94.10;;;;;;5070325;28;20075;-74
2022/01/24 13:40:54;;;;;;;4.93;1.00;;;5.50;94.40;;;;;;5071813;28;20031;-74
2022/01/24 13:43:40;;;;;;;3.25;1.08;;;5.30;94.50;;;;;;5070415;28;20098;-75
2022/01/24 13:46:10;;;;;;;3.20;1.10;;;5.10;94.60;;;;;;5071758;28;20103;-76
2022/01/24 13:48:46;;;;;;;4.88;1.25;;;5.00;95.40;;;;;;5071793;28;20103;-73
2022/01/24 13:51:15;;;;;;;6.13;1.60;;;5.00;95.40;;;;;;5070749;28;20031;-73
2022/01/24 13:53:43;;;;;;;4.60;1.00;;;4.90;95.50;;;;;;5071003;28;20107;-77
2022/01/24 13:56:22;;;;;;;6.20;1.23;;;4.80;95.70;;;;;;5070896;28;20029;-75
2022/01/24 13:59:25;;;;;;;5.13;1.10;;;4.80;95.80;;;;;;5069068;28;20020;-75
2022/01/24 14:02:22;;;;;;;6.18;1.25;;;4.70;95.20;;;;;;5066950;28;20154;-75
2022/01/24 14:04:52;;;;;;;6.93;1.17;;;4.60;95.00;;;;;;5068792;28;20031;-74
2022/01/24 14:07:22;;;;;;;6.80;1.40;;;4.50;94.70;;;;;;5070869;28;21387;-75
2022/01/24 14:09:52;;;;;;;10.73;2.10;;;4.40;94.40;;;;;;5070891;28;20032;-75
2022/01/24 14:12:31;;;;;;;5.47;1.10;;;4.40;94.60;;;;;;5070509;28;20029;-75
2022/01/24 14:15:11;;;;;;;5.22;1.10;;;4.40;94.60;;;;;;5071134;28;20033;-75
2022/01/24 14:20:15;;;;;;;7.53;1.50;;;4.40;94.50;;;;;;5071649;28;20039;-75
2022/01/24 14:22:47;;;;;;;7.63;1.70;;;4.30;94.20;;;;;;5071320;28;20029;-76
2022/01/24 14:25:21;;;;;;;6.63;1.48;;;4.30;94.00;;;;;;5071075;28;20048;-75
2022/01/24 14:27:49;;;;;;;6.80;1.17;;;4.20;94.00;;;;;;5071324;28;20033;-75
2022/01/24 14:30:20;;;;;;;9.05;1.67;;;4.20;94.00;;;;;;5069794;28;20024;-75
2022/01/24 14:33:13;;;;;;;6.70;1.75;;;4.10;94.10;;;;;;5071286;28;20487;-75
2022/01/24 14:35:58;;;;;;;8.18;1.42;;;4.10;94.10;;;;;;5071177;28;20388;-75
2022/01/24 14:38:38;;;;;;;10.05;2.05;;;4.10;94.10;;;;;;5070911;28;20048;-75
2022/01/24 14:41:29;;;;;;;6.05;1.70;;;4.00;94.60;;;;;;5071137;28;20031;-74
2022/01/24 14:46:46;;;;;;;;;;;4.00;94.70;;;;;;5051146;28;20086;-76
2022/01/24 14:49:17;;;;;;;6.20;1.13;;;4.00;97.90;;;;;;5073259;28;19904;-74
2022/01/24 14:51:45;;;;;;;10.57;1.30;;;4.00;95.40;;;;;;5074157;28;20021;-75
2022/01/24 14:54:16;;;;;;;7.35;1.70;;;4.00;95.00;;;;;;5073691;28;20024;-75
2022/01/24 14:56:47;;;;;;;13.80;1.80;;;4.00;94.90;;;;;;5073738;28;20042;-75
2022/01/24 14:59:13;;;;;;;7.60;1.33;;;4.00;94.50;;;;;;5073873;28;20016;-74
2022/01/24 15:01:40;;;;;;;8.85;2.03;;;3.90;94.20;;;;;;5074232;28;20055;-73
2022/01/24 15:04:06;;;;;;;9.70;2.45;;;3.80;94.60;;;;;;5074437;28;20488;-72
2022/01/24 15:06:32;;;;;;;10.40;1.50;;;3.80;94.60;;;;;;5074093;28;20510;-73
2022/01/24 15:09:01;;;;;;;6.40;1.40;;;3.80;94.60;;;;;;5074267;28;20091;-73
2022/01/24 15:11:30;;;;;;;7.80;1.60;;;3.90;94.40;;;;;;5074056;28;20040;-74
2022/01/24 15:14:04;;;;;;;9.68;1.67;;;3.80;94.70;;;;;;5074569;28;20028;-74
2022/01/24 15:26:55;;;;;;;7.95;1.88;;;3.80;94.10;;;;;;5073362;28;20028;-74
2022/01/24 15:29:21;;;;;;;12.73;1.60;;;3.80;93.90;;;;;;5073273;28;20112;-74
2022/01/24 15:31:48;;;;;;;8.15;1.38;;;3.70;94.10;;;;;;5073369;28;20065;-73
2022/01/24 15:34:14;;;;;;;5.10;1.30;;;3.70;94.10;;;;;;5073035;28;20025;-73
2022/01/24 15:36:42;;;;;;;6.88;1.90;;;3.70;94.00;;;;;;5073185;28;20102;-73
2022/01/24 15:39:09;;;;;;;5.85;1.42;;;3.70;94.00;;;;;;5073176;28;20051;-73
2022/01/24 15:41:45;;;;;;;4.60;1.30;;;3.70;94.10;;;;;;5072936;28;20059;-74
2022/01/24 15:47:02;;;;;;;4.72;1.27;;;3.60;94.30;;;;;;5073107;28;20067;-74
2022/01/24 15:49:28;;;;;;;7.50;1.63;;;3.60;94.40;;;;;;5073082;28;20016;-74
2022/01/24 15:51:54;;;;;;;5.25;1.45;;;3.60;94.70;;;;;;5072960;28;20491;-74
2022/01/24 15:54:23;;;;;;;6.07;1.50;;;3.60;94.70;;;;;;5072708;28;20032;-74
2022/01/24 15:59:33;;;;;;;9.75;1.70;;;3.60;94.80;;;;;;5073127;28;20526;-73
2022/01/24 16:01:59;;;;;;;6.65;1.60;;;3.50;95.10;;;;;;5072718;28;20495;-74
2022/01/24 16:04:24;;;;;;;6.85;1.38;;;3.50;95.40;;;;;;5072234;28;20115;-75
2022/01/24 16:06:50;;;;;;;6.57;1.80;;;3.50;95.50;;;;;;5071494;28;20108;-74
2022/01/24 16:09:16;;;;;;;6.90;1.40;;;3.50;95.50;;;;;;5071835;28;20032;-75
2022/01/24 16:11:42;;;;;;;5.60;1.55;;;3.40;95.70;;;;;;5072880;28;20028;-76
2022/01/24 16:14:09;;;;;;;9.43;1.60;;;3.40;96.00;;;;;;5072873;28;20388;-73
2022/01/24 16:16:36;;;;;;;6.97;1.50;;;3.40;96.30;;;;;;5072807;28;20107;-72
2022/01/24 16:19:03;;;;;;;7.43;1.23;;;3.40;96.50;;;;;;5072653;28;20468;-73